Main page
METAR-TAF:

METAR-TAF

Airports :

Casablanca–Anfa Airport

Casablanca, Morocco

latitude: 33-34N, longitude: 007-40W, elevation: 62 m

Current weather observation

The report was made 7 hours and 20 minutes ago, at 20:00 UTC
Wind 4 kt from the Southeast
Temperature 16°C
Humidity 88%
Pressure 1011 hPa
Visibility 10 km or more
Scattered clouds at a height of 1600 ft, Towering cumulus.

METAR: GMMC 192000Z 14004KT 9999 SCT016TCU 16/14 Q1011

Time: 04:20 (03:20 UTC)


TAF: missing

Weather observations and forecasts of more than 4000 airports (METAR and TAF reports).

The available stations are represented by yellow and red dots on the map.

Hover mouse over dot to see the name of the station.

Then click to see weather observations and forecasts.

To change the map : click on the green buttons with a black cross to zoom in, on the green button with a dash to zoom out, or on the green arrows for adjacent maps.


METAR-TAF: